sensor_id;sensor_type;location;lat;lon;timestamp;P1;durP1;ratioP1;P2;durP2;ratioP2
79249;SDS011;68679;51.030;7.584;2023-05-10T00:01:54;4.65;;;3.10;;
79249;SDS011;68679;51.030;7.584;2023-05-10T00:04:19;5.57;;;3.00;;
79249;SDS011;68679;51.030;7.584;2023-05-10T00:06:45;5.13;;;3.10;;
79249;SDS011;68679;51.030;7.584;2023-05-10T00:09:11;5.78;;;3.00;;
79249;SDS011;68679;51.030;7.584;2023-05-10T00:11:36;4.57;;;2.70;;
79249;SDS011;68679;51.030;7.584;2023-05-10T00:14:01;5.13;;;2.97;;
79249;SDS011;68679;51.030;7.584;2023-05-10T00:16:27;4.63;;;2.25;;
79249;SDS011;68679;51.030;7.584;2023-05-10T00:18:52;3.80;;;2.70;;
79249;SDS011;68679;51.030;7.584;2023-05-10T00:21:17;4.00;;;2.07;;
79249;SDS011;68679;51.030;7.584;2023-05-10T00:23:43;3.47;;;2.33;;
79249;SDS011;68679;51.030;7.584;2023-05-10T00:26:08;3.50;;;2.20;;
79249;SDS011;68679;51.030;7.584;2023-05-10T00:28:33;3.37;;;2.20;;
79249;SDS011;68679;51.030;7.584;2023-05-10T00:30:58;3.87;;;2.37;;
79249;SDS011;68679;51.030;7.584;2023-05-10T00:33:24;5.43;;;2.83;;
79249;SDS011;68679;51.030;7.584;2023-05-10T00:35:49;4.60;;;2.47;;
79249;SDS011;68679;51.030;7.584;2023-05-10T00:38:15;4.07;;;2.45;;
79249;SDS011;68679;51.030;7.584;2023-05-10T00:40:40;4.80;;;2.60;;
79249;SDS011;68679;51.030;7.584;2023-05-10T00:43:05;5.05;;;3.03;;
79249;SDS011;68679;51.030;7.584;2023-05-10T00:45:31;3.75;;;2.83;;
79249;SDS011;68679;51.030;7.584;2023-05-10T00:47:58;4.10;;;2.85;;
79249;SDS011;68679;51.030;7.584;2023-05-10T00:50:24;4.70;;;2.53;;
79249;SDS011;68679;51.030;7.584;2023-05-10T00:52:50;4.03;;;2.53;;
79249;SDS011;68679;51.030;7.584;2023-05-10T00:55:16;4.65;;;2.00;;
79249;SDS011;68679;51.030;7.584;2023-05-10T00:57:42;2.80;;;1.80;;
79249;SDS011;68679;51.030;7.584;2023-05-10T01:00:08;4.68;;;1.90;;
79249;SDS011;68679;51.030;7.584;2023-05-10T01:02:34;3.22;;;1.60;;
79249;SDS011;68679;51.030;7.584;2023-05-10T01:05:00;3.28;;;1.70;;
79249;SDS011;68679;51.030;7.584;2023-05-10T01:07:28;3.00;;;1.60;;
79249;SDS011;68679;51.030;7.584;2023-05-10T01:09:53;2.78;;;1.63;;
79249;SDS011;68679;51.030;7.584;2023-05-10T01:12:19;3.03;;;1.67;;
79249;SDS011;68679;51.030;7.584;2023-05-10T01:14:44;3.40;;;1.95;;
79249;SDS011;68679;51.030;7.584;2023-05-10T01:17:10;3.35;;;1.88;;
79249;SDS011;68679;51.030;7.584;2023-05-10T01:19:37;4.68;;;2.40;;
79249;SDS011;68679;51.030;7.584;2023-05-10T01:22:12;4.28;;;2.40;;
79249;SDS011;68679;51.030;7.584;2023-05-10T01:30:42;4.45;;;2.60;;
79249;SDS011;68679;51.030;7.584;2023-05-10T01:33:26;4.72;;;2.97;;
79249;SDS011;68679;51.030;7.584;2023-05-10T01:38:31;6.27;;;2.70;;
79249;SDS011;68679;51.030;7.584;2023-05-10T01:41:14;6.65;;;3.22;;
79249;SDS011;68679;51.030;7.584;2023-05-10T01:43:55;5.15;;;3.13;;
79249;SDS011;68679;51.030;7.584;2023-05-10T01:46:44;5.35;;;3.40;;
79249;SDS011;68679;51.030;7.584;2023-05-10T01:49:22;8.95;;;3.38;;
79249;SDS011;68679;51.030;7.584;2023-05-10T01:51:54;7.03;;;3.63;;
79249;SDS011;68679;51.030;7.584;2023-05-10T01:54:24;5.95;;;3.75;;
79249;SDS011;68679;51.030;7.584;2023-05-10T01:56:55;7.10;;;4.00;;
79249;SDS011;68679;51.030;7.584;2023-05-10T01:59:29;5.95;;;3.72;;
79249;SDS011;68679;51.030;7.584;2023-05-10T02:02:01;6.18;;;3.40;;
79249;SDS011;68679;51.030;7.584;2023-05-10T02:04:29;5.82;;;3.67;;
79249;SDS011;68679;51.030;7.584;2023-05-10T02:06:55;7.35;;;3.33;;
79249;SDS011;68679;51.030;7.584;2023-05-10T02:09:21;5.88;;;3.50;;
79249;SDS011;68679;51.030;7.584;2023-05-10T02:11:49;6.70;;;3.88;;
79249;SDS011;68679;51.030;7.584;2023-05-10T02:14:15;7.75;;;4.10;;
79249;SDS011;68679;51.030;7.584;2023-05-10T02:16:41;6.88;;;3.55;;
79249;SDS011;68679;51.030;7.584;2023-05-10T02:19:08;6.40;;;3.90;;
79249;SDS011;68679;51.030;7.584;2023-05-10T02:21:35;6.85;;;3.97;;
79249;SDS011;68679;51.030;7.584;2023-05-10T02:24:01;7.97;;;4.50;;
79249;SDS011;68679;51.030;7.584;2023-05-10T02:26:28;7.53;;;3.92;;
79249;SDS011;68679;51.030;7.584;2023-05-10T02:28:55;7.68;;;4.13;;
79249;SDS011;68679;51.030;7.584;2023-05-10T02:31:21;6.45;;;3.83;;
79249;SDS011;68679;51.030;7.584;2023-05-10T02:33:48;8.68;;;4.95;;
79249;SDS011;68679;51.030;7.584;2023-05-10T02:36:13;8.82;;;4.80;;
79249;SDS011;68679;51.030;7.584;2023-05-10T02:38:40;8.05;;;4.75;;
79249;SDS011;68679;51.030;7.584;2023-05-10T02:41:05;10.55;;;5.90;;
79249;SDS011;68679;51.030;7.584;2023-05-10T02:43:34;7.43;;;4.50;;
79249;SDS011;68679;51.030;7.584;2023-05-10T02:46:00;11.40;;;4.60;;
79249;SDS011;68679;51.030;7.584;2023-05-10T02:48:27;7.50;;;4.72;;
79249;SDS011;68679;51.030;7.584;2023-05-10T02:50:52;7.60;;;4.13;;
79249;SDS011;68679;51.030;7.584;2023-05-10T02:53:22;9.27;;;4.95;;
79249;SDS011;68679;51.030;7.584;2023-05-10T02:55:53;8.50;;;4.72;;
79249;SDS011;68679;51.030;7.584;2023-05-10T02:58:22;10.18;;;5.15;;
79249;SDS011;68679;51.030;7.584;2023-05-10T03:00:47;11.20;;;5.47;;
79249;SDS011;68679;51.030;7.584;2023-05-10T03:03:12;11.97;;;5.27;;
79249;SDS011;68679;51.030;7.584;2023-05-10T03:05:38;10.15;;;5.72;;
79249;SDS011;68679;51.030;7.584;2023-05-10T03:08:03;8.70;;;5.40;;
79249;SDS011;68679;51.030;7.584;2023-05-10T03:10:29;9.77;;;5.45;;
79249;SDS011;68679;51.030;7.584;2023-05-10T03:13:06;10.52;;;6.30;;
79249;SDS011;68679;51.030;7.584;2023-05-10T03:21:07;12.32;;;6.70;;
79249;SDS011;68679;51.030;7.584;2023-05-10T03:23:35;12.98;;;7.03;;
79249;SDS011;68679;51.030;7.584;2023-05-10T03:26:24;11.45;;;6.78;;
79249;SDS011;68679;51.030;7.584;2023-05-10T03:28:50;12.18;;;6.55;;
79249;SDS011;68679;51.030;7.584;2023-05-10T03:31:18;11.90;;;6.45;;
79249;SDS011;68679;51.030;7.584;2023-05-10T03:33:50;11.30;;;6.20;;
79249;SDS011;68679;51.030;7.584;2023-05-10T03:36:16;12.38;;;6.03;;
79249;SDS011;68679;51.030;7.584;2023-05-10T03:38:42;10.82;;;6.15;;
79249;SDS011;68679;51.030;7.584;2023-05-10T03:41:08;10.27;;;6.47;;
79249;SDS011;68679;51.030;7.584;2023-05-10T03:43:33;8.77;;;5.15;;
79249;SDS011;68679;51.030;7.584;2023-05-10T03:46:01;8.50;;;5.38;;
79249;SDS011;68679;51.030;7.584;2023-05-10T03:48:27;7.95;;;5.13;;
79249;SDS011;68679;51.030;7.584;2023-05-10T03:50:52;7.13;;;4.33;;
79249;SDS011;68679;51.030;7.584;2023-05-10T03:53:17;7.13;;;4.27;;
79249;SDS011;68679;51.030;7.584;2023-05-10T03:55:42;8.20;;;4.13;;
79249;SDS011;68679;51.030;7.584;2023-05-10T03:58:10;7.40;;;4.63;;
79249;SDS011;68679;51.030;7.584;2023-05-10T04:00:36;7.45;;;4.38;;
79249;SDS011;68679;51.030;7.584;2023-05-10T04:03:02;10.35;;;4.60;;
79249;SDS011;68679;51.030;7.584;2023-05-10T04:05:27;6.40;;;3.70;;
79249;SDS011;68679;51.030;7.584;2023-05-10T04:07:52;7.53;;;4.23;;
79249;SDS011;68679;51.030;7.584;2023-05-10T04:10:18;6.77;;;4.03;;
79249;SDS011;68679;51.030;7.584;2023-05-10T04:12:43;7.78;;;4.40;;
79249;SDS011;68679;51.030;7.584;2023-05-10T04:15:08;6.30;;;3.53;;
79249;SDS011;68679;51.030;7.584;2023-05-10T04:17:34;8.77;;;4.28;;
79249;SDS011;68679;51.030;7.584;2023-05-10T04:19:59;9.67;;;4.77;;
79249;SDS011;68679;51.030;7.584;2023-05-10T04:22:24;9.70;;;4.70;;
79249;SDS011;68679;51.030;7.584;2023-05-10T04:24:50;9.20;;;5.20;;
79249;SDS011;68679;51.030;7.584;2023-05-10T04:27:15;8.97;;;5.57;;
79249;SDS011;68679;51.030;7.584;2023-05-10T04:29:40;8.90;;;5.07;;
79249;SDS011;68679;51.030;7.584;2023-05-10T04:32:06;11.15;;;5.22;;
79249;SDS011;68679;51.030;7.584;2023-05-10T04:34:32;9.02;;;4.93;;
79249;SDS011;68679;51.030;7.584;2023-05-10T04:36:59;9.57;;;5.57;;
79249;SDS011;68679;51.030;7.584;2023-05-10T04:39:24;10.82;;;6.03;;
79249;SDS011;68679;51.030;7.584;2023-05-10T04:41:49;9.17;;;5.10;;
79249;SDS011;68679;51.030;7.584;2023-05-10T04:44:15;11.70;;;5.60;;
79249;SDS011;68679;51.030;7.584;2023-05-10T04:46:40;10.53;;;5.43;;
79249;SDS011;68679;51.030;7.584;2023-05-10T04:49:05;11.23;;;6.13;;
79249;SDS011;68679;51.030;7.584;2023-05-10T04:51:30;14.20;;;6.70;;
79249;SDS011;68679;51.030;7.584;2023-05-10T04:53:56;8.68;;;5.13;;
79249;SDS011;68679;51.030;7.584;2023-05-10T04:56:22;11.53;;;5.63;;
79249;SDS011;68679;51.030;7.584;2023-05-10T04:58:47;14.70;;;6.78;;
79249;SDS011;68679;51.030;7.584;2023-05-10T05:01:12;12.05;;;6.45;;
79249;SDS011;68679;51.030;7.584;2023-05-10T05:03:38;12.80;;;6.10;;
79249;SDS011;68679;51.030;7.584;2023-05-10T05:06:03;12.43;;;6.23;;
79249;SDS011;68679;51.030;7.584;2023-05-10T05:08:28;13.98;;;6.25;;
79249;SDS011;68679;51.030;7.584;2023-05-10T05:10:54;15.60;;;6.50;;
79249;SDS011;68679;51.030;7.584;2023-05-10T05:13:19;15.65;;;6.70;;
79249;SDS011;68679;51.030;7.584;2023-05-10T05:15:45;13.60;;;7.07;;
79249;SDS011;68679;51.030;7.584;2023-05-10T05:18:12;10.82;;;5.97;;
79249;SDS011;68679;51.030;7.584;2023-05-10T05:20:38;11.33;;;5.80;;
79249;SDS011;68679;51.030;7.584;2023-05-10T05:23:03;9.97;;;5.33;;
79249;SDS011;68679;51.030;7.584;2023-05-10T05:25:28;11.40;;;5.70;;
79249;SDS011;68679;51.030;7.584;2023-05-10T05:27:53;11.93;;;5.53;;
79249;SDS011;68679;51.030;7.584;2023-05-10T05:30:19;10.00;;;5.37;;
79249;SDS011;68679;51.030;7.584;2023-05-10T05:32:44;11.85;;;5.78;;
79249;SDS011;68679;51.030;7.584;2023-05-10T05:35:11;12.05;;;6.10;;
79249;SDS011;68679;51.030;7.584;2023-05-10T05:37:37;9.77;;;5.40;;
79249;SDS011;68679;51.030;7.584;2023-05-10T05:40:05;11.88;;;6.15;;
79249;SDS011;68679;51.030;7.584;2023-05-10T05:42:31;11.13;;;5.47;;
79249;SDS011;68679;51.030;7.584;2023-05-10T05:44:57;12.10;;;5.35;;
79249;SDS011;68679;51.030;7.584;2023-05-10T05:47:22;12.50;;;5.03;;
79249;SDS011;68679;51.030;7.584;2023-05-10T05:49:47;11.63;;;4.30;;
79249;SDS011;68679;51.030;7.584;2023-05-10T05:52:13;9.63;;;4.37;;
79249;SDS011;68679;51.030;7.584;2023-05-10T05:54:38;9.35;;;4.13;;
79249;SDS011;68679;51.030;7.584;2023-05-10T05:57:03;8.38;;;4.43;;
79249;SDS011;68679;51.030;7.584;2023-05-10T05:59:29;9.77;;;4.67;;
79249;SDS011;68679;51.030;7.584;2023-05-10T06:01:54;10.97;;;4.73;;
79249;SDS011;68679;51.030;7.584;2023-05-10T06:04:19;8.50;;;4.50;;
79249;SDS011;68679;51.030;7.584;2023-05-10T06:06:45;12.57;;;4.80;;
79249;SDS011;68679;51.030;7.584;2023-05-10T06:09:10;9.55;;;5.10;;
79249;SDS011;68679;51.030;7.584;2023-05-10T06:11:36;9.60;;;5.15;;
79249;SDS011;68679;51.030;7.584;2023-05-10T06:14:02;13.27;;;5.32;;
79249;SDS011;68679;51.030;7.584;2023-05-10T06:16:29;9.95;;;5.80;;
79249;SDS011;68679;51.030;7.584;2023-05-10T06:18:54;12.65;;;5.38;;
79249;SDS011;68679;51.030;7.584;2023-05-10T06:21:20;13.55;;;6.60;;
79249;SDS011;68679;51.030;7.584;2023-05-10T06:23:45;11.43;;;5.60;;
79249;SDS011;68679;51.030;7.584;2023-05-10T06:26:10;11.43;;;6.10;;
79249;SDS011;68679;51.030;7.584;2023-05-10T06:28:36;11.70;;;6.10;;
79249;SDS011;68679;51.030;7.584;2023-05-10T06:31:04;13.77;;;6.10;;
79249;SDS011;68679;51.030;7.584;2023-05-10T06:33:30;14.00;;;6.85;;
79249;SDS011;68679;51.030;7.584;2023-05-10T06:35:55;12.48;;;6.18;;
79249;SDS011;68679;51.030;7.584;2023-05-10T06:38:20;11.98;;;6.43;;
79249;SDS011;68679;51.030;7.584;2023-05-10T06:40:46;13.43;;;6.22;;
79249;SDS011;68679;51.030;7.584;2023-05-10T06:43:11;12.20;;;5.88;;
79249;SDS011;68679;51.030;7.584;2023-05-10T06:45:36;15.63;;;6.37;;
79249;SDS011;68679;51.030;7.584;2023-05-10T06:48:02;12.83;;;6.47;;
79249;SDS011;68679;51.030;7.584;2023-05-10T06:50:27;15.88;;;7.30;;
79249;SDS011;68679;51.030;7.584;2023-05-10T06:52:52;14.50;;;6.70;;
79249;SDS011;68679;51.030;7.584;2023-05-10T06:55:18;12.23;;;6.70;;
79249;SDS011;68679;51.030;7.584;2023-05-10T06:57:43;16.65;;;8.57;;
79249;SDS011;68679;51.030;7.584;2023-05-10T07:00:08;24.80;;;10.93;;
79249;SDS011;68679;51.030;7.584;2023-05-10T07:02:35;25.15;;;11.48;;
79249;SDS011;68679;51.030;7.584;2023-05-10T07:05:00;23.45;;;11.15;;
79249;SDS011;68679;51.030;7.584;2023-05-10T07:07:26;22.50;;;11.23;;
79249;SDS011;68679;51.030;7.584;2023-05-10T07:09:51;27.67;;;12.63;;
79249;SDS011;68679;51.030;7.584;2023-05-10T07:12:17;29.60;;;13.07;;
79249;SDS011;68679;51.030;7.584;2023-05-10T07:14:42;25.08;;;12.13;;
79249;SDS011;68679;51.030;7.584;2023-05-10T07:17:07;28.53;;;13.83;;
79249;SDS011;68679;51.030;7.584;2023-05-10T07:19:33;30.92;;;13.68;;
79249;SDS011;68679;51.030;7.584;2023-05-10T07:21:58;32.08;;;14.30;;
79249;SDS011;68679;51.030;7.584;2023-05-10T07:24:24;32.13;;;15.20;;
79249;SDS011;68679;51.030;7.584;2023-05-10T07:26:49;30.30;;;13.67;;
79249;SDS011;68679;51.030;7.584;2023-05-10T07:29:14;28.75;;;14.30;;
79249;SDS011;68679;51.030;7.584;2023-05-10T07:31:40;28.90;;;14.45;;
79249;SDS011;68679;51.030;7.584;2023-05-10T07:34:10;32.03;;;14.40;;
79249;SDS011;68679;51.030;7.584;2023-05-10T07:36:35;29.92;;;13.68;;
79249;SDS011;68679;51.030;7.584;2023-05-10T07:39:01;30.03;;;14.30;;
79249;SDS011;68679;51.030;7.584;2023-05-10T07:41:26;29.35;;;15.00;;
79249;SDS011;68679;51.030;7.584;2023-05-10T07:43:52;30.48;;;14.93;;
79249;SDS011;68679;51.030;7.584;2023-05-10T07:46:17;32.90;;;14.97;;
79249;SDS011;68679;51.030;7.584;2023-05-10T07:48:44;33.17;;;15.52;;
79249;SDS011;68679;51.030;7.584;2023-05-10T07:51:10;24.77;;;12.30;;
79249;SDS011;68679;51.030;7.584;2023-05-10T07:53:35;37.65;;;15.48;;
79249;SDS011;68679;51.030;7.584;2023-05-10T07:56:19;36.67;;;16.33;;
79249;SDS011;68679;51.030;7.584;2023-05-10T07:58:47;33.38;;;14.93;;
79249;SDS011;68679;51.030;7.584;2023-05-10T08:01:12;37.13;;;15.50;;
79249;SDS011;68679;51.030;7.584;2023-05-10T08:03:37;33.23;;;14.97;;
79249;SDS011;68679;51.030;7.584;2023-05-10T08:06:03;34.67;;;16.33;;
79249;SDS011;68679;51.030;7.584;2023-05-10T08:08:29;32.65;;;16.67;;
79249;SDS011;68679;51.030;7.584;2023-05-10T08:10:54;33.50;;;15.43;;
79249;SDS011;68679;51.030;7.584;2023-05-10T08:13:19;38.77;;;17.93;;
79249;SDS011;68679;51.030;7.584;2023-05-10T08:15:46;36.17;;;16.75;;
79249;SDS011;68679;51.030;7.584;2023-05-10T08:18:11;38.60;;;17.17;;
79249;SDS011;68679;51.030;7.584;2023-05-10T08:20:37;39.40;;;17.00;;
79249;SDS011;68679;51.030;7.584;2023-05-10T08:23:02;37.97;;;16.83;;
79249;SDS011;68679;51.030;7.584;2023-05-10T08:25:27;40.93;;;19.00;;
79249;SDS011;68679;51.030;7.584;2023-05-10T08:27:52;39.80;;;18.47;;
79249;SDS011;68679;51.030;7.584;2023-05-10T08:30:18;40.63;;;17.53;;
79249;SDS011;68679;51.030;7.584;2023-05-10T08:32:43;35.70;;;17.43;;
79249;SDS011;68679;51.030;7.584;2023-05-10T08:35:08;36.60;;;16.93;;
79249;SDS011;68679;51.030;7.584;2023-05-10T08:37:33;36.43;;;15.17;;
79249;SDS011;68679;51.030;7.584;2023-05-10T08:39:59;31.27;;;14.13;;
79249;SDS011;68679;51.030;7.584;2023-05-10T08:42:25;32.28;;;15.38;;
79249;SDS011;68679;51.030;7.584;2023-05-10T08:44:53;34.60;;;17.45;;
79249;SDS011;68679;51.030;7.584;2023-05-10T08:47:20;33.90;;;14.85;;
79249;SDS011;68679;51.030;7.584;2023-05-10T08:49:47;31.70;;;14.70;;
79249;SDS011;68679;51.030;7.584;2023-05-10T08:52:16;30.25;;;13.85;;
79249;SDS011;68679;51.030;7.584;2023-05-10T08:54:43;30.45;;;13.85;;
79249;SDS011;68679;51.030;7.584;2023-05-10T08:57:08;28.83;;;12.98;;
79249;SDS011;68679;51.030;7.584;2023-05-10T08:59:35;28.27;;;13.25;;
79249;SDS011;68679;51.030;7.584;2023-05-10T09:02:00;30.75;;;14.93;;
79249;SDS011;68679;51.030;7.584;2023-05-10T09:04:27;25.17;;;11.07;;
79249;SDS011;68679;51.030;7.584;2023-05-10T09:06:53;26.80;;;13.00;;
79249;SDS011;68679;51.030;7.584;2023-05-10T09:09:19;19.73;;;9.20;;
79249;SDS011;68679;51.030;7.584;2023-05-10T09:11:46;20.38;;;8.38;;
79249;SDS011;68679;51.030;7.584;2023-05-10T09:14:12;20.45;;;8.82;;
79249;SDS011;68679;51.030;7.584;2023-05-10T09:16:38;20.48;;;8.90;;
79249;SDS011;68679;51.030;7.584;2023-05-10T09:19:04;17.60;;;8.43;;
79249;SDS011;68679;51.030;7.584;2023-05-10T09:21:30;16.23;;;7.63;;
79249;SDS011;68679;51.030;7.584;2023-05-10T09:23:56;13.43;;;6.93;;
79249;SDS011;68679;51.030;7.584;2023-05-10T09:26:22;13.67;;;7.77;;
79249;SDS011;68679;51.030;7.584;2023-05-10T09:28:55;12.82;;;6.45;;
79249;SDS011;68679;51.030;7.584;2023-05-10T09:31:24;12.70;;;7.38;;
79249;SDS011;68679;51.030;7.584;2023-05-10T09:33:51;11.77;;;6.00;;
79249;SDS011;68679;51.030;7.584;2023-05-10T09:36:16;14.77;;;5.80;;
79249;SDS011;68679;51.030;7.584;2023-05-10T09:38:46;13.00;;;6.20;;
79249;SDS011;68679;51.030;7.584;2023-05-10T09:41:22;10.23;;;5.55;;
79249;SDS011;68679;51.030;7.584;2023-05-10T09:43:48;13.93;;;7.03;;
79249;SDS011;68679;51.030;7.584;2023-05-10T09:46:15;11.07;;;6.10;;
79249;SDS011;68679;51.030;7.584;2023-05-10T09:48:44;11.93;;;5.93;;
79249;SDS011;68679;51.030;7.584;2023-05-10T09:51:21;12.77;;;6.10;;
79249;SDS011;68679;51.030;7.584;2023-05-10T09:53:47;14.65;;;7.45;;
79249;SDS011;68679;51.030;7.584;2023-05-10T09:56:32;14.10;;;7.97;;
79249;SDS011;68679;51.030;7.584;2023-05-10T09:59:02;19.88;;;8.38;;
79249;SDS011;68679;51.030;7.584;2023-05-10T10:01:28;14.98;;;7.78;;
79249;SDS011;68679;51.030;7.584;2023-05-10T10:03:54;16.35;;;8.45;;
79249;SDS011;68679;51.030;7.584;2023-05-10T10:06:19;15.88;;;8.65;;
79249;SDS011;68679;51.030;7.584;2023-05-10T10:08:45;17.35;;;9.48;;
79249;SDS011;68679;51.030;7.584;2023-05-10T10:11:11;21.67;;;9.52;;
79249;SDS011;68679;51.030;7.584;2023-05-10T10:13:36;17.58;;;9.05;;
79249;SDS011;68679;51.030;7.584;2023-05-10T10:16:02;17.15;;;7.60;;
79249;SDS011;68679;51.030;7.584;2023-05-10T10:18:27;16.13;;;7.57;;
79249;SDS011;68679;51.030;7.584;2023-05-10T10:20:55;14.15;;;6.63;;
79249;SDS011;68679;51.030;7.584;2023-05-10T10:23:21;15.02;;;6.88;;
79249;SDS011;68679;51.030;7.584;2023-05-10T10:25:46;13.50;;;6.57;;
79249;SDS011;68679;51.030;7.584;2023-05-10T10:30:47;12.77;;;6.50;;
79249;SDS011;68679;51.030;7.584;2023-05-10T10:36:05;14.05;;;7.00;;
79249;SDS011;68679;51.030;7.584;2023-05-10T10:38:54;13.32;;;6.90;;
79249;SDS011;68679;51.030;7.584;2023-05-10T10:41:33;7.32;;;3.40;;
79249;SDS011;68679;51.030;7.584;2023-05-10T10:47:04;6.50;;;2.97;;
79249;SDS011;68679;51.030;7.584;2023-05-10T10:49:33;5.88;;;3.25;;
79249;SDS011;68679;51.030;7.584;2023-05-10T10:57:48;6.93;;;3.47;;
79249;SDS011;68679;51.030;7.584;2023-05-10T11:03:10;6.93;;;3.70;;
79249;SDS011;68679;51.030;7.584;2023-05-10T11:08:12;8.80;;;4.32;;
79249;SDS011;68679;51.030;7.584;2023-05-10T11:11:15;11.15;;;5.25;;
79249;SDS011;68679;51.030;7.584;2023-05-10T11:13:38;8.25;;;4.95;;
79249;SDS011;68679;51.030;7.584;2023-05-10T11:16:15;9.48;;;4.65;;
79249;SDS011;68679;51.030;7.584;2023-05-10T11:18:52;7.68;;;3.90;;
79249;SDS011;68679;51.030;7.584;2023-05-10T11:21:20;8.82;;;4.43;;
79249;SDS011;68679;51.030;7.584;2023-05-10T11:26:11;9.53;;;4.73;;
79249;SDS011;68679;51.030;7.584;2023-05-10T11:28:47;12.13;;;5.60;;
79249;SDS011;68679;51.030;7.584;2023-05-10T11:31:14;11.93;;;5.75;;
79249;SDS011;68679;51.030;7.584;2023-05-10T11:33:43;12.80;;;5.05;;
79249;SDS011;68679;51.030;7.584;2023-05-10T11:36:28;11.40;;;5.40;;
79249;SDS011;68679;51.030;7.584;2023-05-10T11:38:57;15.38;;;6.80;;
79249;SDS011;68679;51.030;7.584;2023-05-10T11:41:22;14.20;;;7.65;;
79249;SDS011;68679;51.030;7.584;2023-05-10T11:43:50;14.02;;;7.47;;
79249;SDS011;68679;51.030;7.584;2023-05-10T11:46:17;14.20;;;8.25;;
79249;SDS011;68679;51.030;7.584;2023-05-10T11:48:45;17.13;;;9.25;;
79249;SDS011;68679;51.030;7.584;2023-05-10T11:51:10;20.95;;;9.85;;
79249;SDS011;68679;51.030;7.584;2023-05-10T11:53:36;19.77;;;9.23;;
79249;SDS011;68679;51.030;7.584;2023-05-10T11:56:08;21.52;;;10.60;;
79249;SDS011;68679;51.030;7.584;2023-05-10T11:58:35;21.20;;;11.40;;
79249;SDS011;68679;51.030;7.584;2023-05-10T12:01:01;18.90;;;10.15;;
79249;SDS011;68679;51.030;7.584;2023-05-10T12:03:28;22.02;;;10.15;;
79249;SDS011;68679;51.030;7.584;2023-05-10T12:05:56;26.30;;;11.40;;
79249;SDS011;68679;51.030;7.584;2023-05-10T12:08:23;27.42;;;12.63;;
79249;SDS011;68679;51.030;7.584;2023-05-10T12:10:53;22.77;;;11.02;;
79249;SDS011;68679;51.030;7.584;2023-05-10T12:13:29;23.85;;;11.30;;
79249;SDS011;68679;51.030;7.584;2023-05-10T12:15:56;24.40;;;10.45;;
79249;SDS011;68679;51.030;7.584;2023-05-10T12:18:23;29.20;;;12.68;;
79249;SDS011;68679;51.030;7.584;2023-05-10T12:20:51;26.77;;;13.00;;
79249;SDS011;68679;51.030;7.584;2023-05-10T12:23:18;25.55;;;12.27;;
79249;SDS011;68679;51.030;7.584;2023-05-10T12:25:45;23.50;;;11.05;;
79249;SDS011;68679;51.030;7.584;2023-05-10T12:28:10;23.52;;;10.68;;
79249;SDS011;68679;51.030;7.584;2023-05-10T12:30:36;24.55;;;13.00;;
79249;SDS011;68679;51.030;7.584;2023-05-10T12:33:12;29.30;;;13.30;;
79249;SDS011;68679;51.030;7.584;2023-05-10T12:35:43;28.67;;;12.77;;
79249;SDS011;68679;51.030;7.584;2023-05-10T12:38:26;27.02;;;12.85;;
79249;SDS011;68679;51.030;7.584;2023-05-10T12:41:06;25.80;;;12.20;;
79249;SDS011;68679;51.030;7.584;2023-05-10T12:43:33;24.67;;;12.07;;
79249;SDS011;68679;51.030;7.584;2023-05-10T12:48:31;26.05;;;12.30;;
79249;SDS011;68679;51.030;7.584;2023-05-10T12:50:56;26.80;;;12.80;;
79249;SDS011;68679;51.030;7.584;2023-05-10T12:53:21;27.03;;;12.87;;
79249;SDS011;68679;51.030;7.584;2023-05-10T12:55:47;24.45;;;12.65;;
79249;SDS011;68679;51.030;7.584;2023-05-10T12:58:12;21.40;;;9.90;;
79249;SDS011;68679;51.030;7.584;2023-05-10T13:00:37;21.73;;;11.03;;
79249;SDS011;68679;51.030;7.584;2023-05-10T13:03:04;23.77;;;10.98;;
79249;SDS011;68679;51.030;7.584;2023-05-10T13:05:31;21.00;;;11.15;;
79249;SDS011;68679;51.030;7.584;2023-05-10T13:07:59;19.15;;;9.52;;
79249;SDS011;68679;51.030;7.584;2023-05-10T13:10:24;21.88;;;10.32;;
79249;SDS011;68679;51.030;7.584;2023-05-10T13:12:50;21.17;;;11.07;;
79249;SDS011;68679;51.030;7.584;2023-05-10T13:15:15;24.40;;;11.45;;
79249;SDS011;68679;51.030;7.584;2023-05-10T13:17:41;26.00;;;11.67;;
79249;SDS011;68679;51.030;7.584;2023-05-10T13:20:07;19.45;;;10.57;;
79249;SDS011;68679;51.030;7.584;2023-05-10T13:22:34;25.35;;;12.85;;
79249;SDS011;68679;51.030;7.584;2023-05-10T13:24:59;25.83;;;11.33;;
79249;SDS011;68679;51.030;7.584;2023-05-10T13:27:24;22.73;;;10.97;;
79249;SDS011;68679;51.030;7.584;2023-05-10T13:29:50;20.92;;;10.88;;
79249;SDS011;68679;51.030;7.584;2023-05-10T13:32:15;25.03;;;11.73;;
79249;SDS011;68679;51.030;7.584;2023-05-10T13:34:40;25.53;;;11.47;;
79249;SDS011;68679;51.030;7.584;2023-05-10T13:37:06;23.20;;;10.70;;
79249;SDS011;68679;51.030;7.584;2023-05-10T13:39:31;22.10;;;9.75;;
79249;SDS011;68679;51.030;7.584;2023-05-10T13:41:59;22.73;;;10.55;;
79249;SDS011;68679;51.030;7.584;2023-05-10T13:44:24;25.02;;;11.57;;
79249;SDS011;68679;51.030;7.584;2023-05-10T13:46:50;25.05;;;10.77;;
79249;SDS011;68679;51.030;7.584;2023-05-10T13:49:15;22.53;;;11.73;;
79249;SDS011;68679;51.030;7.584;2023-05-10T13:51:40;23.93;;;11.20;;
79249;SDS011;68679;51.030;7.584;2023-05-10T13:54:06;26.13;;;11.70;;
79249;SDS011;68679;51.030;7.584;2023-05-10T13:56:31;24.20;;;12.30;;
79249;SDS011;68679;51.030;7.584;2023-05-10T13:58:56;25.77;;;11.67;;
79249;SDS011;68679;51.030;7.584;2023-05-10T14:01:23;23.10;;;10.95;;
79249;SDS011;68679;51.030;7.584;2023-05-10T14:03:48;23.90;;;10.85;;
79249;SDS011;68679;51.030;7.584;2023-05-10T14:06:14;21.80;;;11.40;;
79249;SDS011;68679;51.030;7.584;2023-05-10T14:08:39;21.15;;;10.38;;
79249;SDS011;68679;51.030;7.584;2023-05-10T14:11:05;23.80;;;10.50;;
79249;SDS011;68679;51.030;7.584;2023-05-10T14:13:30;22.65;;;11.13;;
79249;SDS011;68679;51.030;7.584;2023-05-10T14:15:55;25.00;;;11.80;;
79249;SDS011;68679;51.030;7.584;2023-05-10T14:18:21;24.20;;;11.15;;
79249;SDS011;68679;51.030;7.584;2023-05-10T14:20:46;24.63;;;10.90;;
79249;SDS011;68679;51.030;7.584;2023-05-10T14:23:12;20.47;;;10.23;;
79249;SDS011;68679;51.030;7.584;2023-05-10T14:25:38;25.38;;;10.30;;
79249;SDS011;68679;51.030;7.584;2023-05-10T14:28:05;22.13;;;10.70;;
79249;SDS011;68679;51.030;7.584;2023-05-10T14:30:30;24.30;;;10.70;;
79249;SDS011;68679;51.030;7.584;2023-05-10T14:32:57;21.05;;;10.70;;
79249;SDS011;68679;51.030;7.584;2023-05-10T14:35:23;24.73;;;11.40;;
79249;SDS011;68679;51.030;7.584;2023-05-10T14:37:48;23.67;;;11.85;;
79249;SDS011;68679;51.030;7.584;2023-05-10T14:40:14;23.27;;;11.52;;
79249;SDS011;68679;51.030;7.584;2023-05-10T14:42:40;20.77;;;11.40;;
79249;SDS011;68679;51.030;7.584;2023-05-10T14:45:05;22.88;;;11.05;;
79249;SDS011;68679;51.030;7.584;2023-05-10T14:47:31;23.98;;;11.73;;
79249;SDS011;68679;51.030;7.584;2023-05-10T14:49:56;24.60;;;12.60;;
79249;SDS011;68679;51.030;7.584;2023-05-10T14:52:22;24.53;;;12.23;;
79249;SDS011;68679;51.030;7.584;2023-05-10T14:54:47;22.70;;;11.73;;
79249;SDS011;68679;51.030;7.584;2023-05-10T14:57:12;24.10;;;11.70;;
79249;SDS011;68679;51.030;7.584;2023-05-10T14:59:38;26.00;;;12.23;;
79249;SDS011;68679;51.030;7.584;2023-05-10T15:02:03;28.83;;;14.38;;
79249;SDS011;68679;51.030;7.584;2023-05-10T15:04:29;74.13;;;47.55;;
79249;SDS011;68679;51.030;7.584;2023-05-10T15:06:57;30.00;;;14.75;;
79249;SDS011;68679;51.030;7.584;2023-05-10T15:09:24;25.15;;;13.10;;
79249;SDS011;68679;51.030;7.584;2023-05-10T15:11:49;29.13;;;14.80;;